Time;durP1;ratioP1;P1;durP2;ratioP2;P2;SDS_P1;SDS_P2;PMS_P1;PMS_P2;Temp;Humidity;BMP_temperature;BMP_pressure;BME280_temperature;BME280_humidity;BME280_pressure;Samples;Min_cycle;Max_cycle;Signal;HPM_P1;HPM_P2
2022/04/01 00:02:29;;;;;;;15.52;5.88;;;4.90;73.50;;;;;;5010553;28;20259;-78
2022/04/01 00:05:14;;;;;;;12.43;5.72;;;4.90;73.20;;;;;;5009450;28;20048;-76
2022/04/01 00:07:59;;;;;;;16.15;5.78;;;4.90;73.10;;;;;;5013153;28;20090;-78
2022/04/01 00:10:43;;;;;;;11.48;6.45;;;4.80;73.70;;;;;;5040773;28;20032;-77
2022/04/01 00:13:27;;;;;;;14.52;6.30;;;4.80;73.50;;;;;;5044145;28;20087;-77
2022/04/01 00:16:12;;;;;;;10.25;6.15;;;4.90;72.90;;;;;;5030708;28;20051;-78
2022/04/01 00:18:57;;;;;;;7.85;5.18;;;4.90;72.80;;;;;;5042761;28;20142;-79
2022/04/01 00:21:41;;;;;;;10.52;6.30;;;4.90;73.10;;;;;;5028943;28;20056;-78
2022/04/01 00:24:26;;;;;;;10.82;5.57;;;4.90;73.30;;;;;;5035119;28;20040;-78
2022/04/01 00:27:10;;;;;;;10.77;5.90;;;4.90;73.40;;;;;;5011150;28;20060;-77
2022/04/01 00:29:54;;;;;;;10.35;5.85;;;4.80;73.50;;;;;;4998373;28;20033;-78
2022/04/01 00:32:38;;;;;;;12.32;6.60;;;4.80;73.60;;;;;;5003550;28;20095;-79
2022/04/01 00:35:22;;;;;;;11.85;6.15;;;4.80;73.70;;;;;;5011240;28;20432;-78
2022/04/01 00:38:08;;;;;;;9.23;5.63;;;4.80;74.50;;;;;;5011282;28;20043;-78
2022/04/01 00:40:52;;;;;;;;;;;4.70;74.20;;;;;;5044639;28;20403;-77
2022/04/01 00:43:36;;;;;;;9.43;5.88;;;4.70;75.70;;;;;;5039728;28;19931;-78
2022/04/01 00:46:20;;;;;;;11.40;6.40;;;4.60;76.80;;;;;;5013078;28;20060;-78
2022/04/01 00:49:04;;;;;;;12.55;6.45;;;4.70;76.60;;;;;;5036098;28;20105;-77
2022/04/01 00:51:51;;;;;;;15.38;6.70;;;4.60;76.60;;;;;;5038087;28;20025;-78
2022/04/01 00:54:35;;;;;;;10.93;6.20;;;4.60;76.90;;;;;;5026387;28;20028;-78
2022/04/01 00:57:21;;;;;;;9.93;6.68;;;4.60;77.40;;;;;;5042544;28;20075;-77
2022/04/01 01:00:07;;;;;;;9.90;6.00;;;4.60;77.10;;;;;;5028934;28;20083;-77
2022/04/01 01:02:54;;;;;;;10.13;6.38;;;4.60;77.30;;;;;;5055468;28;20089;-77
2022/04/01 01:05:39;;;;;;;11.82;6.78;;;4.60;77.50;;;;;;5058006;28;20097;-77
2022/04/01 01:08:22;;;;;;;11.30;6.05;;;4.60;77.50;;;;;;5025396;28;20084;-77
2022/04/01 01:11:08;;;;;;;13.00;6.38;;;4.60;77.20;;;;;;5029345;28;20044;-78
2022/04/01 01:13:54;;;;;;;10.48;7.60;;;4.60;77.60;;;;;;5042597;28;20035;-79
2022/04/01 01:16:44;;;;;;;12.57;6.45;;;4.60;77.40;;;;;;5042866;28;20039;-77
2022/04/01 01:19:30;;;;;;;9.90;5.45;;;4.50;77.30;;;;;;5027588;28;20087;-77
2022/04/01 01:22:14;;;;;;;11.32;6.40;;;4.50;77.30;;;;;;5058913;28;20040;-77
2022/04/01 01:24:59;;;;;;;12.70;6.38;;;4.60;77.20;;;;;;5042508;28;20079;-77
2022/04/01 01:27:44;;;;;;;10.23;5.75;;;4.60;76.80;;;;;;5034999;28;20056;-77
2022/04/01 01:30:28;;;;;;;9.60;5.93;;;4.50;76.50;;;;;;5029293;28;20059;-76
2022/04/01 01:33:12;;;;;;;8.82;5.72;;;4.50;77.10;;;;;;5031207;28;20048;-77
2022/04/01 01:35:56;;;;;;;11.10;5.55;;;4.50;76.80;;;;;;5030904;28;20040;-77
2022/04/01 01:38:41;;;;;;;8.60;6.18;;;4.60;76.90;;;;;;5031470;28;20092;-78
2022/04/01 01:41:25;;;;;;;8.30;5.88;;;4.50;77.20;;;;;;5040198;28;20032;-76
2022/04/01 01:44:11;;;;;;;8.88;5.50;;;4.50;77.30;;;;;;5021729;28;20409;-77
2022/04/01 01:46:55;;;;;;;11.35;5.75;;;4.50;77.50;;;;;;5022120;28;20575;-77
2022/04/01 01:54:42;;;;;;;11.85;6.43;;;4.50;77.70;;;;;;5009411;28;20044;-77
2022/04/01 01:55:49;;;;;;;11.23;5.50;;;4.40;77.70;;;;;;5025308;28;20040;-78
2022/04/01 01:58:34;;;;;;;8.75;5.68;;;4.50;77.70;;;;;;5040631;28;20028;-78
2022/04/01 02:01:18;;;;;;;9.52;5.78;;;4.40;77.70;;;;;;5029076;28;20047;-78
2022/04/01 02:04:02;;;;;;;12.00;6.40;;;4.30;77.90;;;;;;5027453;28;20401;-78
2022/04/01 02:06:47;;;;;;;9.85;5.63;;;4.30;78.00;;;;;;5013528;28;20094;-79
2022/04/01 02:09:31;;;;;;;11.43;5.63;;;4.30;77.60;;;;;;5009764;28;20064;-78
2022/04/01 02:12:16;;;;;;;14.00;6.03;;;4.30;77.50;;;;;;5023292;28;20547;-77
2022/04/01 02:15:02;;;;;;;11.27;7.13;;;4.30;76.90;;;;;;5027529;28;20039;-77
2022/04/01 02:17:47;;;;;;;13.40;6.30;;;4.20;77.30;;;;;;5008429;28;20120;-79
2022/04/01 02:20:33;;;;;;;11.10;6.05;;;4.10;77.40;;;;;;5028934;28;20056;-77
2022/04/01 02:23:17;;;;;;;8.73;5.60;;;4.10;77.00;;;;;;5041540;28;20035;-76
2022/04/01 02:26:01;;;;;;;10.05;6.38;;;4.20;77.10;;;;;;5021998;28;20080;-78
2022/04/01 02:28:45;;;;;;;9.80;6.05;;;4.20;77.00;;;;;;4999045;28;20029;-78
2022/04/01 02:31:32;;;;;;;10.55;5.75;;;4.20;76.10;;;;;;5037923;28;20043;-76
2022/04/01 02:34:17;;;;;;;11.40;6.57;;;4.20;76.30;;;;;;5063811;28;20036;-76
2022/04/01 02:37:04;;;;;;;13.15;6.65;;;4.20;76.00;;;;;;5047843;28;20419;-77
2022/04/01 02:39:49;;;;;;;14.68;7.00;;;4.20;75.80;;;;;;5046319;28;20079;-78
2022/04/01 02:42:33;;;;;;;10.63;6.28;;;4.20;76.00;;;;;;5020614;28;20068;-78
2022/04/01 02:45:18;;;;;;;10.55;5.97;;;4.20;75.60;;;;;;5033572;28;20053;-77
2022/04/01 02:48:05;;;;;;;9.45;5.78;;;4.20;75.80;;;;;;5012451;28;20040;-78
2022/04/01 02:50:49;;;;;;;8.90;6.05;;;4.40;75.60;;;;;;5027693;28;20465;-77
2022/04/01 02:53:34;;;;;;;14.98;7.22;;;4.30;75.10;;;;;;5040657;28;20029;-79
2022/04/01 02:56:18;;;;;;;19.08;6.65;;;4.30;75.10;;;;;;4997156;28;20057;-77
2022/04/01 02:59:07;;;;;;;13.40;6.25;;;4.30;74.90;;;;;;5013357;28;20041;-78
2022/04/01 03:01:51;;;;;;;12.20;6.20;;;4.20;75.10;;;;;;5044015;28;20040;-78
2022/04/01 03:04:36;;;;;;;11.13;6.13;;;4.30;75.10;;;;;;5043680;28;20036;-78
2022/04/01 03:07:21;;;;;;;12.73;6.57;;;4.20;74.90;;;;;;5032908;28;20106;-78
2022/04/01 03:10:05;;;;;;;10.50;5.93;;;4.20;74.40;;;;;;5027833;28;20094;-77
2022/04/01 03:12:50;;;;;;;9.27;6.38;;;4.20;74.50;;;;;;5081253;28;20040;-78
2022/04/01 03:15:37;;;;;;;;;;;4.20;74.60;;;;;;5065098;28;20035;-77
2022/04/01 03:18:21;;;;;;;;;;;4.20;74.50;;;;;;5066295;28;19958;-78
2022/04/01 03:21:05;;;;;;;8.57;5.70;;;4.20;73.90;;;;;;5045845;28;19916;-78
2022/04/01 03:23:50;;;;;;;10.50;6.25;;;4.30;73.60;;;;;;5017127;28;20095;-79
2022/04/01 03:26:34;;;;;;;8.70;5.45;;;4.30;73.40;;;;;;5044555;28;20031;-78
2022/04/01 03:29:19;;;;;;;14.57;6.70;;;4.20;73.50;;;;;;5016252;28;20150;-77
2022/04/01 03:32:04;;;;;;;11.70;6.00;;;4.20;73.30;;;;;;5030249;28;20036;-79
2022/04/01 03:34:48;;;;;;;10.82;7.30;;;4.20;73.40;;;;;;5011063;28;20049;-78
2022/04/01 03:37:33;;;;;;;12.20;6.13;;;4.20;73.10;;;;;;5026360;28;20040;-79
2022/04/01 03:40:19;;;;;;;10.57;5.97;;;4.10;73.40;;;;;;5062200;28;20044;-78
2022/04/01 03:43:05;;;;;;;9.52;6.82;;;4.10;73.50;;;;;;5031315;28;20469;-77
2022/04/01 03:45:52;;;;;;;14.00;6.32;;;4.10;72.70;;;;;;5045605;28;20044;-77
2022/04/01 03:48:42;;;;;;;11.05;5.78;;;4.00;73.00;;;;;;5045232;28;20490;-78
2022/04/01 03:51:30;;;;;;;9.40;5.93;;;4.00;73.20;;;;;;5044770;28;20059;-78
2022/04/01 03:54:15;;;;;;;18.42;6.85;;;3.90;73.00;;;;;;5030819;28;20079;-78
2022/04/01 03:57:01;;;;;;;10.43;5.97;;;3.90;72.60;;;;;;5045823;28;20052;-79
2022/04/01 03:59:50;;;;;;;10.00;5.78;;;3.90;72.60;;;;;;5025734;28;20041;-78
2022/04/01 04:02:35;;;;;;;10.57;5.53;;;3.90;72.50;;;;;;5030630;28;20147;-77
2022/04/01 04:05:23;;;;;;;12.77;5.60;;;3.80;72.10;;;;;;5011777;28;20032;-77
2022/04/01 04:08:10;;;;;;;10.20;5.95;;;3.80;71.60;;;;;;5031575;28;20469;-76
2022/04/01 04:10:56;;;;;;;11.23;5.65;;;3.70;71.80;;;;;;5029406;28;20106;-76
2022/04/01 04:13:44;;;;;;;12.50;7.28;;;3.70;72.00;;;;;;5045195;28;20067;-78
2022/04/01 04:16:44;;;;;;;10.50;6.00;;;3.70;72.20;;;;;;5030500;28;20072;-77
2022/04/01 04:19:51;;;;;;;10.25;6.05;;;3.70;72.30;;;;;;5060163;28;20087;-78
2022/04/01 04:22:52;;;;;;;10.07;5.85;;;3.60;72.80;;;;;;5060889;28;20040;-77
2022/04/01 04:25:38;;;;;;;11.07;5.72;;;3.60;73.20;;;;;;5044848;28;20140;-78
2022/04/01 04:28:25;;;;;;;16.77;5.80;;;3.50;74.80;;;;;;5039701;28;20052;-78
2022/04/01 04:31:12;;;;;;;10.18;5.97;;;3.40;76.10;;;;;;5040942;28;20059;-80
2022/04/01 04:33:57;;;;;;;11.25;6.05;;;3.30;77.40;;;;;;5001926;28;20078;-78
2022/04/01 04:36:42;;;;;;;15.15;5.78;;;3.20;79.10;;;;;;5032598;28;20048;-80
2022/04/01 04:39:31;;;;;;;;;;;3.10;80.70;;;;;;5045059;28;20443;-79
2022/04/01 04:42:15;;;;;;;16.83;6.53;;;2.90;82.60;;;;;;5059928;28;20436;-82
2022/04/01 04:45:01;;;;;;;8.65;5.90;;;2.90;83.20;;;;;;5028230;28;20036;-78
2022/04/01 04:47:45;;;;;;;;;;;2.80;83.80;;;;;;5042361;28;20071;-79
2022/04/01 04:50:32;;;;;;;12.18;6.03;;;2.80;84.30;;;;;;5043372;28;20530;-77
2022/04/01 04:53:19;;;;;;;9.80;6.28;;;2.70;84.50;;;;;;5029621;28;20091;-79
2022/04/01 04:56:04;;;;;;;9.25;6.30;;;2.70;85.20;;;;;;5062524;28;20082;-78
2022/04/01 04:58:49;;;;;;;8.65;6.05;;;2.70;84.60;;;;;;5017144;28;20071;-80
2022/04/01 05:01:47;;;;;;;10.88;6.30;;;2.80;85.20;;;;;;5016047;28;20044;-77
2022/04/01 05:04:55;;;;;;;14.70;7.07;;;2.80;85.20;;;;;;5057376;28;20036;-79
2022/04/01 05:08:04;;;;;;;10.57;6.40;;;2.80;87.10;;;;;;5042997;28;20507;-78
2022/04/01 05:10:59;;;;;;;11.60;6.43;;;2.70;89.00;;;;;;5068819;28;20032;-78
2022/04/01 05:13:55;;;;;;;9.98;6.25;;;2.40;90.50;;;;;;5054299;28;20067;-77
2022/04/01 05:17:01;;;;;;;13.50;7.07;;;2.40;91.10;;;;;;5080831;28;20059;-78
2022/04/01 05:19:59;;;;;;;21.67;7.00;;;2.00;92.50;;;;;;5066110;28;20019;-78
2022/04/01 05:22:56;;;;;;;11.90;6.60;;;1.90;93.20;;;;;;5053169;28;20079;-77
2022/04/01 05:25:50;;;;;;;16.88;7.70;;;1.90;93.80;;;;;;5058766;28;20032;-78
2022/04/01 05:28:41;;;;;;;12.25;6.20;;;1.70;95.10;;;;;;5042412;28;20489;-78
2022/04/01 05:31:25;;;;;;;13.93;6.97;;;1.70;95.20;;;;;;5030693;28;20032;-78
2022/04/01 05:34:43;;;;;;;9.80;6.38;;;1.70;95.40;;;;;;5058062;28;20040;-78
2022/04/01 05:37:29;;;;;;;13.18;7.15;;;1.80;95.60;;;;;;5059903;28;20690;-78
2022/04/01 05:40:15;;;;;;;13.23;7.32;;;1.50;95.90;;;;;;5025810;28;20036;-78
2022/04/01 05:43:02;;;;;;;10.85;7.80;;;1.50;96.60;;;;;;5025949;28;20083;-78
2022/04/01 05:45:49;;;;;;;13.27;7.47;;;1.40;97.00;;;;;;5044818;28;20520;-78
2022/04/01 05:48:33;;;;;;;13.27;7.30;;;1.60;97.00;;;;;;5046116;28;20075;-77
2022/04/01 05:51:18;;;;;;;10.35;6.97;;;1.50;97.30;;;;;;5050533;28;20113;-78
2022/04/01 05:54:05;;;;;;;11.20;6.97;;;1.50;97.50;;;;;;5041530;28;20037;-80
2022/04/01 05:56:50;;;;;;;9.55;6.43;;;1.40;98.00;;;;;;5042376;28;20047;-79
2022/04/01 05:59:35;;;;;;;;;;;1.30;98.20;;;;;;5056982;28;20106;-78
2022/04/01 06:02:31;;;;;;;13.35;6.68;;;1.30;98.30;;;;;;5040239;28;19911;-77
2022/04/01 06:05:48;;;;;;;10.80;6.60;;;1.30;98.40;;;;;;5021935;28;20037;-79
2022/04/01 06:08:48;;;;;;;12.45;6.90;;;1.20;98.40;;;;;;5027298;28;20037;-78
2022/04/01 06:11:50;;;;;;;12.25;6.97;;;1.30;98.40;;;;;;5055147;28;20055;-78
2022/04/01 06:14:54;;;;;;;13.15;6.90;;;1.30;98.30;;;;;;5064840;28;20045;-78
2022/04/01 06:18:03;;;;;;;10.38;6.95;;;1.20;98.20;;;;;;5039837;28;20699;-78
2022/04/01 06:20:51;;;;;;;13.10;7.43;;;1.20;98.60;;;;;;5041421;28;20146;-79
2022/04/01 06:23:47;;;;;;;10.52;7.20;;;1.50;98.10;;;;;;5022494;28;20527;-78
2022/04/01 06:26:34;;;;;;;;;;;1.50;98.00;;;;;;5043361;28;20506;-79
2022/04/01 06:29:39;;;;;;;10.48;6.70;;;1.50;98.10;;;;;;5034842;28;19976;-78
2022/04/01 06:32:38;;;;;;;13.48;7.60;;;1.50;98.20;;;;;;5086478;28;20043;-78
2022/04/01 06:35:50;;;;;;;14.07;7.50;;;1.50;98.10;;;;;;5049208;28;20089;-78
2022/04/01 06:38:54;;;;;;;10.80;6.97;;;1.50;98.00;;;;;;5046501;28;20032;-80
2022/04/01 06:41:47;;;;;;;11.00;6.93;;;1.50;97.90;;;;;;5049123;28;20137;-76
2022/04/01 06:44:31;;;;;;;18.98;7.30;;;1.40;98.40;;;;;;5037672;28;20103;-77
2022/04/01 06:47:15;;;;;;;13.90;7.45;;;1.20;99.00;;;;;;5031531;28;20040;-77
2022/04/01 06:49:59;;;;;;;11.02;7.97;;;1.30;99.40;;;;;;5041030;28;20044;-77
2022/04/01 06:52:45;;;;;;;10.77;7.07;;;1.30;99.30;;;;;;5027273;28;20060;-77
2022/04/01 06:55:31;;;;;;;11.35;7.05;;;1.30;99.60;;;;;;5024220;28;20808;-79
2022/04/01 06:58:16;;;;;;;13.05;7.57;;;1.30;99.90;;;;;;5042989;28;20086;-78
2022/04/01 07:01:00;;;;;;;13.30;8.18;;;1.30;99.90;;;;;;5011863;28;20016;-76
2022/04/01 07:03:44;;;;;;;11.50;7.40;;;1.30;99.90;;;;;;5035619;28;20450;-76
2022/04/01 07:06:29;;;;;;;13.48;7.43;;;1.30;99.90;;;;;;5036301;28;20084;-76
2022/04/01 07:09:13;;;;;;;13.98;8.52;;;1.30;99.90;;;;;;5028889;28;20079;-77
2022/04/01 07:12:01;;;;;;;12.77;6.90;;;1.30;99.90;;;;;;5020432;28;20049;-76
2022/04/01 07:14:45;;;;;;;13.20;8.10;;;1.40;99.90;;;;;;5035945;28;20247;-77
2022/04/01 07:17:30;;;;;;;12.38;8.02;;;1.40;99.90;;;;;;5060642;28;20036;-80
2022/04/01 07:20:15;;;;;;;13.73;8.00;;;1.20;99.40;;;;;;5028115;28;20045;-80
2022/04/01 07:22:59;;;;;;;17.98;8.82;;;1.00;99.80;;;;;;5011585;28;20527;-79
2022/04/01 07:25:43;;;;;;;13.00;8.27;;;1.10;99.90;;;;;;5000482;28;20036;-78
2022/04/01 07:28:28;;;;;;;12.63;7.90;;;1.20;99.90;;;;;;5029145;28;20151;-78
2022/04/01 07:34:26;;;;;;;13.07;7.95;;;1.30;98.50;;;;;;4964193;28;20307;-77
2022/04/01 07:37:12;;;;;;;13.13;8.02;;;1.30;98.70;;;;;;5047063;28;20044;-77
2022/04/01 07:39:57;;;;;;;14.07;7.80;;;1.40;98.10;;;;;;5061279;28;20028;-79
2022/04/01 07:42:41;;;;;;;;;;;1.50;98.00;;;;;;5045096;28;20060;-78
2022/04/01 07:45:26;;;;;;;10.57;6.97;;;1.50;97.70;;;;;;5049417;28;20383;-79
2022/04/01 07:48:10;;;;;;;9.95;7.53;;;1.40;97.60;;;;;;5064813;28;20043;-78
2022/04/01 07:50:54;;;;;;;16.10;7.93;;;1.50;97.10;;;;;;5032757;28;20043;-78
2022/04/01 07:53:38;;;;;;;23.05;11.52;;;1.60;97.20;;;;;;5047458;28;20085;-78
2022/04/01 07:56:30;;;;;;;14.23;8.52;;;1.80;96.40;;;;;;5040769;28;20036;-78
2022/04/01 07:59:14;;;;;;;13.63;7.75;;;1.90;95.50;;;;;;5019377;28;20083;-78
2022/04/01 08:01:59;;;;;;;13.90;8.70;;;1.90;95.50;;;;;;5034472;28;20067;-79
2022/04/01 08:04:43;;;;;;;13.52;7.20;;;2.00;95.20;;;;;;5044587;28;20250;-77
2022/04/01 08:07:28;;;;;;;12.15;7.75;;;2.10;95.00;;;;;;5045453;28;20480;-78
2022/04/01 08:10:12;;;;;;;11.05;7.70;;;2.30;95.00;;;;;;5046277;28;20044;-78
2022/04/01 08:12:56;;;;;;;10.07;7.50;;;2.40;94.60;;;;;;5043891;28;20036;-78
2022/04/01 08:15:40;;;;;;;13.77;7.93;;;2.60;93.20;;;;;;5029892;28;20525;-76
2022/04/01 08:18:25;;;;;;;11.40;7.30;;;2.50;92.10;;;;;;5045129;28;20122;-78
2022/04/01 08:21:09;;;;;;;13.55;7.47;;;2.50;90.10;;;;;;5043882;28;20495;-78
2022/04/01 08:23:54;;;;;;;12.52;7.50;;;2.50;89.30;;;;;;5044712;28;20444;-78
2022/04/01 08:26:38;;;;;;;11.43;7.20;;;2.60;86.20;;;;;;5029560;28;20570;-79
2022/04/01 08:29:22;;;;;;;17.15;8.63;;;2.70;85.20;;;;;;5030146;28;20064;-79
2022/04/01 08:32:07;;;;;;;14.18;7.05;;;2.60;84.30;;;;;;5031531;28;20040;-79
2022/04/01 08:34:52;;;;;;;14.43;7.25;;;2.70;83.10;;;;;;5043866;28;20059;-78
2022/04/01 08:37:38;;;;;;;10.25;6.95;;;2.70;82.70;;;;;;5042913;28;20071;-80
2022/04/01 08:40:23;;;;;;;11.95;6.60;;;2.60;83.60;;;;;;5044152;28;20088;-78
2022/04/01 08:43:08;;;;;;;12.85;6.93;;;2.70;82.40;;;;;;5046404;28;20040;-78
2022/04/01 08:45:52;;;;;;;;;;;2.80;81.30;;;;;;5028378;28;20056;-80
2022/04/01 08:48:37;;;;;;;12.77;7.28;;;2.80;81.00;;;;;;5035489;28;19932;-79
2022/04/01 08:51:22;;;;;;;11.52;6.82;;;2.80;81.40;;;;;;5042582;28;20060;-77
2022/04/01 08:54:06;;;;;;;16.58;8.15;;;2.80;81.10;;;;;;5046054;28;20060;-77
2022/04/01 08:56:51;;;;;;;12.38;7.32;;;2.80;81.50;;;;;;5031304;28;20044;-78
2022/04/01 08:59:35;;;;;;;11.00;7.05;;;2.80;81.30;;;;;;5045163;28;20424;-79
2022/04/01 09:02:24;;;;;;;12.48;7.30;;;2.80;80.80;;;;;;5042746;28;20511;-79
2022/04/01 09:05:09;;;;;;;10.57;6.68;;;2.90;80.90;;;;;;5041890;28;20040;-78
2022/04/01 09:08:08;;;;;;;10.60;6.95;;;2.90;80.00;;;;;;5046742;28;20126;-79
2022/04/01 09:10:58;;;;;;;12.75;6.72;;;3.00;80.00;;;;;;5051981;28;20047;-78
2022/04/01 09:13:42;;;;;;;10.25;6.20;;;3.10;79.60;;;;;;5028592;28;20036;-79
2022/04/01 09:16:31;;;;;;;9.75;6.97;;;3.20;78.90;;;;;;5030490;28;20152;-78
2022/04/01 09:19:15;;;;;;;13.10;7.22;;;3.10;78.90;;;;;;5059008;28;20040;-79
2022/04/01 09:22:20;;;;;;;12.25;7.53;;;3.10;79.70;;;;;;5032305;28;20543;-79
2022/04/01 09:25:10;;;;;;;12.63;6.75;;;3.30;79.00;;;;;;5046116;28;20109;-79
2022/04/01 09:27:55;;;;;;;12.43;6.07;;;3.20;77.90;;;;;;5029223;28;20059;-77
2022/04/01 09:30:39;;;;;;;10.70;6.35;;;3.30;78.60;;;;;;5034614;28;20101;-78
2022/04/01 09:33:27;;;;;;;13.30;7.00;;;3.40;79.00;;;;;;5030034;28;20056;-80
2022/04/01 09:36:15;;;;;;;15.82;6.78;;;3.50;78.60;;;;;;5044364;28;20032;-79
2022/04/01 09:39:22;;;;;;;8.68;5.70;;;3.60;79.10;;;;;;5045121;28;20075;-81
2022/04/01 09:42:13;;;;;;;9.57;5.80;;;3.60;79.20;;;;;;5043424;28;20083;-80
2022/04/01 09:44:58;;;;;;;10.38;5.55;;;3.30;80.00;;;;;;5038158;28;20059;-80
2022/04/01 09:47:44;;;;;;;11.18;5.90;;;3.30;81.30;;;;;;5043260;28;20063;-79
2022/04/01 09:50:42;;;;;;;12.40;6.03;;;3.40;81.50;;;;;;5044270;28;20036;-80
2022/04/01 09:53:29;;;;;;;8.98;5.70;;;3.50;81.10;;;;;;5047164;28;20094;-79
2022/04/01 09:56:17;;;;;;;8.95;5.35;;;3.30;82.50;;;;;;5061479;28;20048;-78
2022/04/01 09:59:04;;;;;;;8.68;6.13;;;3.20;83.70;;;;;;5051655;28;20031;-79
2022/04/01 10:01:49;;;;;;;9.02;5.78;;;3.20;84.20;;;;;;5029808;28;20111;-79
2022/04/01 10:04:33;;;;;;;8.98;6.00;;;3.20;83.30;;;;;;5032131;28;20217;-78
2022/04/01 10:07:25;;;;;;;15.93;5.72;;;3.10;83.60;;;;;;5049310;28;20037;-78
2022/04/01 10:10:09;;;;;;;10.10;5.82;;;3.20;83.90;;;;;;5023943;28;20110;-78
2022/04/01 10:12:56;;;;;;;;;;;3.20;83.40;;;;;;5024068;28;20024;-77
2022/04/01 10:15:42;;;;;;;14.23;6.13;;;3.20;83.30;;;;;;5023426;28;19983;-80
2022/04/01 10:18:28;;;;;;;11.98;6.10;;;3.40;82.90;;;;;;5043512;28;20047;-79
2022/04/01 10:21:17;;;;;;;10.63;6.88;;;3.50;82.70;;;;;;5028923;28;20028;-79
2022/04/01 10:24:34;;;;;;;9.82;5.75;;;3.50;83.10;;;;;;5006189;28;20032;-78
2022/04/01 10:27:29;;;;;;;8.52;5.50;;;3.50;82.80;;;;;;5005561;28;20257;-78
2022/04/01 10:30:23;;;;;;;10.50;5.40;;;3.50;83.40;;;;;;5040023;28;20028;-79
2022/04/01 10:33:08;;;;;;;10.88;5.72;;;3.60;83.10;;;;;;5015391;28;20036;-80
2022/04/01 10:35:55;;;;;;;12.57;5.40;;;3.60;83.80;;;;;;5043967;28;20085;-79
2022/04/01 10:38:39;;;;;;;9.65;5.32;;;3.50;83.60;;;;;;5056838;28;20068;-78
2022/04/01 10:41:24;;;;;;;9.00;5.18;;;3.50;84.00;;;;;;5025106;28;20327;-78
2022/04/01 10:44:08;;;;;;;7.85;5.95;;;3.40;84.80;;;;;;5020399;28;20052;-79
2022/04/01 10:46:57;;;;;;;8.90;5.75;;;3.30;85.30;;;;;;5030360;28;20396;-79
2022/04/01 10:52:47;;;;;;;9.98;5.65;;;3.40;86.40;;;;;;5049806;28;20051;-81
2022/04/01 10:55:32;;;;;;;10.07;6.20;;;3.40;86.60;;;;;;5049739;28;20067;-77
2022/04/01 10:58:21;;;;;;;8.68;5.75;;;3.40;86.90;;;;;;5047783;28;20044;-77
2022/04/01 11:01:24;;;;;;;9.23;5.22;;;3.50;86.70;;;;;;5038218;28;20048;-79
2022/04/01 11:04:12;;;;;;;9.88;5.90;;;3.50;87.20;;;;;;5030192;28;20120;-78
2022/04/01 11:07:23;;;;;;;9.02;5.80;;;3.40;87.00;;;;;;5030080;28;20043;-80
2022/04/01 11:10:08;;;;;;;8.98;5.68;;;3.50;87.40;;;;;;5031858;28;20059;-79
2022/04/01 11:12:52;;;;;;;14.80;6.00;;;3.50;87.60;;;;;;5033658;28;20040;-81
2022/04/01 11:15:37;;;;;;;14.20;5.45;;;3.60;87.30;;;;;;5034615;28;20095;-77
2022/04/01 11:18:21;;;;;;;8.35;5.20;;;3.80;86.30;;;;;;5046686;28;20036;-78
2022/04/01 11:21:05;;;;;;;7.38;5.20;;;4.00;85.50;;;;;;5054303;28;20096;-79
2022/04/01 11:24:04;;;;;;;8.90;5.63;;;4.10;84.50;;;;;;5031694;28;20044;-80
2022/04/01 11:26:48;;;;;;;8.18;5.53;;;4.20;84.30;;;;;;5046627;28;20162;-78
2022/04/01 11:29:33;;;;;;;10.75;5.78;;;4.20;84.00;;;;;;5047530;28;20108;-79
2022/04/01 11:32:39;;;;;;;6.03;5.20;;;4.30;84.40;;;;;;5046239;28;20070;-80
2022/04/01 11:35:28;;;;;;;7.50;5.00;;;4.30;84.70;;;;;;5067273;28;20040;-78
2022/04/01 11:38:20;;;;;;;8.15;5.38;;;4.00;85.70;;;;;;5031302;28;20508;-77
2022/04/01 11:41:06;;;;;;;7.35;5.53;;;3.90;86.10;;;;;;5029831;28;20037;-78
2022/04/01 11:43:52;;;;;;;10.35;4.95;;;3.80;87.00;;;;;;5027958;28;20056;-80
2022/04/01 11:46:37;;;;;;;8.98;5.38;;;3.90;86.30;;;;;;5045297;28;20078;-79
2022/04/01 11:49:26;;;;;;;6.13;4.88;;;4.10;85.90;;;;;;5046708;28;20063;-78
2022/04/01 11:52:11;;;;;;;6.82;4.90;;;4.20;84.50;;;;;;5034160;28;20051;-78
2022/04/01 11:54:55;;;;;;;8.18;5.22;;;4.30;83.60;;;;;;5019212;28;20064;-79
2022/04/01 11:57:40;;;;;;;9.27;4.90;;;4.30;83.30;;;;;;5034744;28;20063;-79
2022/04/01 12:00:27;;;;;;;10.65;5.05;;;4.30;83.20;;;;;;5023284;28;20048;-80
2022/04/01 12:03:12;;;;;;;8.77;5.10;;;4.20;84.40;;;;;;5040393;28;20043;-80
2022/04/01 12:08:41;;;;;;;12.68;6.13;;;4.20;84.20;;;;;;5078597;28;20274;-81
2022/04/01 12:09:04;;;;;;;9.27;5.32;;;4.40;83.60;;;;;;5065905;28;20040;-78
2022/04/01 12:11:49;;;;;;;8.13;4.70;;;4.50;82.60;;;;;;5078269;28;20052;-78
2022/04/01 12:14:33;;;;;;;9.50;5.03;;;4.50;82.30;;;;;;5045045;28;20044;-78
2022/04/01 12:17:18;;;;;;;9.85;5.00;;;4.40;82.50;;;;;;5053493;28;20043;-80
2022/04/01 12:20:13;;;;;;;8.25;5.40;;;4.50;82.50;;;;;;5043695;28;20098;-77
2022/04/01 12:23:00;;;;;;;7.07;4.95;;;4.50;81.90;;;;;;5043776;28;20107;-78
2022/04/01 12:25:45;;;;;;;11.23;5.15;;;4.50;81.70;;;;;;5044702;28;20044;-78
2022/04/01 12:28:41;;;;;;;8.10;5.13;;;4.50;81.00;;;;;;5044746;28;20032;-79
2022/04/01 12:31:27;;;;;;;8.50;4.57;;;4.70;80.10;;;;;;5017368;28;20040;-78
2022/04/01 12:34:11;;;;;;;8.55;4.97;;;4.70;77.90;;;;;;5044827;28;20047;-78
2022/04/01 12:37:02;;;;;;;10.18;5.10;;;4.80;77.70;;;;;;5036537;28;20093;-77
2022/04/01 12:39:57;;;;;;;9.70;4.68;;;5.00;76.90;;;;;;5064714;28;20442;-78
2022/04/01 12:42:51;;;;;;;7.55;5.63;;;5.20;73.90;;;;;;5044790;28;20465;-77
2022/04/01 12:45:56;;;;;;;13.05;6.00;;;5.30;74.00;;;;;;5038494;28;20040;-78
2022/04/01 12:48:46;;;;;;;8.45;4.82;;;5.40;72.30;;;;;;5024276;28;20087;-79
2022/04/01 12:51:33;;;;;;;10.52;4.70;;;5.40;71.40;;;;;;5045453;28;20032;-79
2022/04/01 12:54:31;;;;;;;9.32;4.50;;;5.40;70.60;;;;;;5025840;28;20189;-79
2022/04/01 12:57:19;;;;;;;11.77;4.68;;;5.50;68.40;;;;;;5030574;28;20044;-79
2022/04/01 13:00:13;;;;;;;6.78;4.72;;;5.60;67.20;;;;;;5056381;28;20139;-78
2022/04/01 13:03:01;;;;;;;8.60;4.07;;;5.70;66.40;;;;;;5041956;28;20040;-78
2022/04/01 13:06:06;;;;;;;11.70;4.50;;;5.70;66.10;;;;;;5060748;28;20040;-77
2022/04/01 13:09:03;;;;;;;7.75;4.40;;;5.80;66.00;;;;;;5032213;28;20461;-80
2022/04/01 13:11:47;;;;;;;7.80;4.35;;;6.20;76.20;;;;;;5043141;28;20106;-79
2022/04/01 13:14:34;;;;;;;9.53;3.93;;;6.90;66.80;;;;;;5028209;28;20040;-77
2022/04/01 13:17:18;;;;;;;5.30;4.07;;;7.20;65.90;;;;;;5029301;28;20075;-79
2022/04/01 13:20:02;;;;;;;16.25;7.75;;;7.00;61.10;;;;;;5016993;28;20036;-78
2022/04/01 13:22:47;;;;;;;9.88;4.53;;;6.70;60.20;;;;;;5029530;28;20036;-79
2022/04/01 13:25:34;;;;;;;11.30;4.13;;;6.50;61.00;;;;;;5053355;28;20564;-77
2022/04/01 13:28:18;;;;;;;12.15;4.10;;;6.30;61.30;;;;;;5012122;28;20037;-79
2022/04/01 13:31:06;;;;;;;6.53;4.57;;;6.30;61.70;;;;;;5029182;28;20074;-77
2022/04/01 13:33:50;;;;;;;10.45;4.45;;;6.40;63.00;;;;;;5028710;28;20067;-78
2022/04/01 13:36:36;;;;;;;9.45;4.15;;;6.40;63.30;;;;;;5027119;28;20112;-78
2022/04/01 13:39:20;;;;;;;11.75;4.90;;;6.30;62.20;;;;;;5040974;28;20036;-76
2022/04/01 13:42:05;;;;;;;11.53;5.03;;;6.30;62.00;;;;;;5039987;28;20527;-79
2022/04/01 13:44:52;;;;;;;8.75;4.78;;;6.30;61.30;;;;;;5015873;28;20155;-77
2022/04/01 13:47:36;;;;;;;6.57;4.63;;;6.30;62.10;;;;;;5035780;28;20105;-78
2022/04/01 13:50:20;;;;;;;9.05;4.13;;;6.40;61.40;;;;;;4997915;28;20109;-77
2022/04/01 13:53:04;;;;;;;10.13;4.55;;;6.30;61.30;;;;;;5007554;28;20035;-79
2022/04/01 13:55:49;;;;;;;8.90;5.18;;;6.20;61.10;;;;;;5011993;28;20559;-80
2022/04/01 13:58:33;;;;;;;6.65;4.20;;;6.20;60.90;;;;;;5021724;28;20040;-79
2022/04/01 14:01:17;;;;;;;10.55;5.18;;;6.30;61.10;;;;;;5014594;28;20655;-81
2022/04/01 14:04:02;;;;;;;14.65;4.97;;;6.40;61.40;;;;;;5032155;28;20136;-79
2022/04/01 14:06:50;;;;;;;9.30;4.80;;;6.50;61.00;;;;;;5028593;28;20055;-78
2022/04/01 14:09:39;;;;;;;5.93;4.22;;;6.60;59.80;;;;;;5018851;28;20146;-78
2022/04/01 14:12:23;;;;;;;10.75;5.25;;;6.50;59.70;;;;;;5022802;28;20515;-77
2022/04/01 14:15:08;;;;;;;13.30;4.50;;;6.40;60.00;;;;;;5040271;28;20040;-78
2022/04/01 14:17:52;;;;;;;8.57;4.97;;;6.50;59.90;;;;;;5041397;28;20110;-78
2022/04/01 14:20:36;;;;;;;7.32;4.13;;;6.60;58.80;;;;;;5028163;28;20039;-78
2022/04/01 14:23:20;;;;;;;9.63;4.53;;;6.70;58.60;;;;;;5027077;28;20459;-80
2022/04/01 14:26:06;;;;;;;9.13;5.00;;;6.60;59.30;;;;;;5027690;28;20063;-77
2022/04/01 14:28:50;;;;;;;9.90;4.03;;;6.60;59.80;;;;;;5029114;28;20189;-78
2022/04/01 14:31:34;;;;;;;7.68;4.30;;;6.60;60.60;;;;;;5022317;28;20091;-78
2022/04/01 14:34:21;;;;;;;10.10;4.03;;;6.60;60.60;;;;;;5025779;28;20047;-78
2022/04/01 14:37:06;;;;;;;9.15;4.65;;;6.60;60.30;;;;;;5042092;28;20036;-80
2022/04/01 14:39:52;;;;;;;10.15;4.20;;;6.50;59.70;;;;;;5022328;28;20036;-79
2022/04/01 14:42:36;;;;;;;8.45;4.88;;;6.60;59.40;;;;;;5015536;28;20120;-78
2022/04/01 14:45:21;;;;;;;8.27;4.35;;;6.50;59.40;;;;;;5036948;28;20464;-80
2022/04/01 14:48:06;;;;;;;8.65;4.57;;;6.60;59.60;;;;;;5035214;28;20043;-78
2022/04/01 14:50:50;;;;;;;8.05;4.50;;;6.60;59.40;;;;;;5042013;28;20512;-79